Time;durP1;ratioP1;P1;durP2;ratioP2;P2;SDS_P1;SDS_P2;PMS_P1;PMS_P2;Temp;Humidity;BMP_temperature;BMP_pressure;BME280_temperature;BME280_humidity;BME280_pressure;Samples;Min_cycle;Max_cycle;Signal;HPM_P1;HPM_P2
2023/09/16 00:01:07;;;;;;;4.40;3.90;;;;;;;8.46;100.00;99551.31;137458;1274;22187;-82
2023/09/16 00:04:12;;;;;;;4.80;3.90;;;;;;;8.46;100.00;99549.41;137302;1274;22199;-81
2023/09/16 00:07:14;;;;;;;9.90;3.90;;;;;;;8.44;100.00;99549.49;137401;1274;22527;-82
2023/09/16 00:10:17;;;;;;;4.00;3.60;;;;;;;8.41;100.00;99552.72;137445;1274;22105;-81
2023/09/16 00:13:19;;;;;;;5.60;3.90;;;;;;;8.34;100.00;99551.45;137328;1274;22136;-81
2023/09/16 00:16:22;;;;;;;6.10;4.10;;;;;;;8.26;100.00;99552.56;137317;1268;22525;-81
2023/09/16 00:19:24;;;;;;;7.50;4.00;;;;;;;8.24;100.00;99551.09;137383;1274;24196;-81
2023/09/16 00:22:28;;;;;;;7.60;4.40;;;;;;;8.25;100.00;99551.30;137314;1275;22430;-81
2023/09/16 00:25:30;;;;;;;12.40;4.70;;;;;;;8.26;100.00;99544.91;137494;1274;22313;-81
2023/09/16 00:28:35;;;;;;;4.80;4.30;;;;;;;8.25;100.00;99547.67;137428;1274;22211;-81
2023/09/16 00:31:40;;;;;;;6.70;4.50;;;;;;;8.22;100.00;99545.14;137377;1275;22220;-81
2023/09/16 00:34:42;;;;;;;6.60;4.00;;;;;;;8.18;100.00;99542.58;137403;1274;22259;-81
2023/09/16 00:37:46;;;;;;;6.70;4.90;;;;;;;8.15;100.00;99541.80;137304;1275;22541;-82
2023/09/16 00:40:49;;;;;;;5.40;3.80;;;;;;;8.15;100.00;99541.27;137335;1275;22374;-81
2023/09/16 00:43:52;;;;;;;35.00;5.80;;;;;;;8.14;100.00;99540.02;137416;1275;22151;-81
2023/09/16 00:46:54;;;;;;;5.60;4.30;;;;;;;8.12;100.00;99536.65;137359;1274;22188;-81
2023/09/16 00:49:57;;;;;;;7.80;4.10;;;;;;;8.10;100.00;99541.09;137344;1275;22702;-82
2023/09/16 00:53:00;;;;;;;6.40;4.00;;;;;;;8.07;100.00;99539.96;137401;1275;22686;-81
2023/09/16 00:56:03;;;;;;;6.40;4.10;;;;;;;8.05;100.00;99540.93;137339;1275;22187;-81
2023/09/16 00:59:05;;;;;;;8.00;4.20;;;;;;;8.03;100.00;99539.30;137376;1274;22127;-81
2023/09/16 01:02:08;;;;;;;8.20;4.60;;;;;;;8.04;100.00;99539.34;137407;1275;22627;-81
2023/09/16 01:05:14;;;;;;;5.80;3.60;;;;;;;8.02;100.00;99538.92;137307;1271;22693;-81
2023/09/16 01:08:18;;;;;;;9.80;3.60;;;;;;;7.98;100.00;99537.23;137346;1274;22549;-81
2023/09/16 01:11:24;;;;;;;6.00;4.30;;;;;;;7.98;100.00;99536.88;137482;1275;22219;-81
2023/09/16 01:14:27;;;;;;;5.90;3.90;;;;;;;7.97;100.00;99531.33;137406;1275;22194;-81
2023/09/16 01:17:32;;;;;;;6.90;4.30;;;;;;;7.97;100.00;99529.58;137386;1275;22202;-81
2023/09/16 01:20:34;;;;;;;132.30;14.10;;;;;;;7.99;100.00;99527.41;137386;1275;22259;-81
2023/09/16 01:23:37;;;;;;;11.90;4.30;;;;;;;8.03;100.00;99523.36;137332;1275;22164;-78
2023/09/16 01:26:40;;;;;;;5.80;3.40;;;;;;;8.05;100.00;99525.70;137372;1275;22219;-78
2023/09/16 01:29:42;;;;;;;7.10;3.90;;;;;;;8.02;100.00;99519.70;137389;1275;22203;-79
2023/09/16 01:32:45;;;;;;;11.30;4.40;;;;;;;7.97;100.00;99524.57;137287;1274;22196;-78
2023/09/16 01:35:47;;;;;;;6.00;4.30;;;;;;;7.94;100.00;99524.98;137331;1275;22316;-78
2023/09/16 01:38:50;;;;;;;6.40;4.10;;;;;;;7.91;100.00;99524.16;137488;1275;22396;-77
2023/09/16 01:41:52;;;;;;;9.60;3.90;;;;;;;7.91;100.00;99522.44;137433;1267;22453;-77
2023/09/16 01:44:54;;;;;;;9.80;5.30;;;;;;;7.96;100.00;99519.65;137311;1269;22567;-77
2023/09/16 01:47:57;;;;;;;12.10;4.40;;;;;;;8.01;100.00;99515.83;137367;1275;22171;-77
2023/09/16 01:50:59;;;;;;;6.80;4.60;;;;;;;8.06;100.00;99513.21;137329;1274;22219;-77
2023/09/16 01:54:02;;;;;;;5.70;4.30;;;;;;;8.03;100.00;99507.42;137335;1275;22717;-77
2023/09/16 01:57:05;;;;;;;7.20;4.30;;;;;;;7.98;100.00;99503.27;137354;1275;22193;-77
2023/09/16 02:00:07;;;;;;;6.50;4.70;;;;;;;7.98;100.00;99505.35;137353;1275;22194;-77
2023/09/16 02:03:10;;;;;;;11.90;5.80;;;;;;;7.97;100.00;99507.41;137422;1275;22199;-76
2023/09/16 02:06:12;;;;;;;17.60;7.10;;;;;;;8.00;100.00;99507.33;137344;1274;22363;-77
2023/09/16 02:09:15;;;;;;;13.00;6.50;;;;;;;8.00;100.00;99507.32;137356;1275;22231;-77
2023/09/16 02:12:18;;;;;;;23.30;8.30;;;;;;;7.99;100.00;99505.55;137399;1269;22287;-77
2023/09/16 02:15:20;;;;;;;18.80;7.60;;;;;;;7.98;100.00;99504.83;137355;1275;22186;-77
2023/09/16 02:18:24;;;;;;;15.40;6.80;;;;;;;7.97;100.00;99499.08;137351;1275;22675;-77
2023/09/16 02:21:26;;;;;;;18.90;7.00;;;;;;;7.99;100.00;99499.33;137292;1269;22493;-76
2023/09/16 02:24:29;;;;;;;11.60;6.00;;;;;;;7.97;100.00;99501.70;137415;1275;22234;-77
2023/09/16 02:27:32;;;;;;;14.40;6.70;;;;;;;7.93;100.00;99502.26;137345;1275;22246;-77
2023/09/16 02:30:34;;;;;;;41.40;7.30;;;;;;;7.90;100.00;99504.75;137384;1275;22218;-77
2023/09/16 02:33:40;;;;;;;12.20;4.70;;;;;;;7.91;100.00;99503.91;137379;1275;22160;-81
2023/09/16 02:36:43;;;;;;;42.90;7.20;;;;;;;7.91;100.00;99505.66;137452;1275;22160;-82
2023/09/16 02:39:45;;;;;;;9.10;4.70;;;;;;;7.92;100.00;99496.14;137401;1275;22603;-82
2023/09/16 02:42:48;;;;;;;32.40;5.40;;;;;;;7.95;100.00;99499.52;137325;1271;22684;-82
2023/09/16 02:45:51;;;;;;;29.60;6.30;;;;;;;7.95;100.00;99504.38;137482;1275;22661;-82
2023/09/16 02:48:53;;;;;;;7.00;4.90;;;;;;;7.95;100.00;99507.01;137194;1275;22559;-82
2023/09/16 02:51:58;;;;;;;9.50;4.70;;;;;;;7.94;100.00;99505.73;137068;1275;22594;-81
2023/09/16 02:55:01;;;;;;;10.20;4.00;;;;;;;7.88;100.00;99504.86;137372;1275;22522;-82
2023/09/16 02:58:06;;;;;;;4.70;3.80;;;;;;;7.76;100.00;99506.85;137176;1275;22487;-84
2023/09/16 03:01:09;;;;;;;7.30;4.10;;;;;;;7.66;100.00;99503.73;137287;1275;22712;-81
2023/09/16 03:04:12;;;;;;;5.60;4.10;;;;;;;7.59;100.00;99502.96;137264;1274;22986;-83
2023/09/16 03:07:15;;;;;;;7.30;3.70;;;;;;;7.53;100.00;99501.91;137386;1275;22267;-83
2023/09/16 03:10:17;;;;;;;5.70;3.90;;;;;;;7.44;100.00;99502.45;136798;1274;22525;-81
2023/09/16 03:13:20;;;;;;;54.20;8.00;;;;;;;7.39;100.00;99502.10;137422;1275;22240;-83
2023/09/16 03:16:22;;;;;;;8.00;4.30;;;;;;;7.38;100.00;99498.63;137292;1275;22553;-84
2023/09/16 03:19:28;;;;;;;5.60;4.90;;;;;;;7.35;100.00;99494.35;137182;1274;22190;-83
2023/09/16 03:22:30;;;;;;;10.60;5.70;;;;;;;7.27;100.00;99495.46;137214;1274;22309;-82
2023/09/16 03:25:33;;;;;;;7.30;5.60;;;;;;;7.19;100.00;99494.14;137417;1274;22259;-83
2023/09/16 03:28:36;;;;;;;6.60;4.60;;;;;;;7.13;100.00;99493.03;137364;1275;22271;-82
2023/09/16 03:31:41;;;;;;;11.80;5.80;;;;;;;7.08;100.00;99492.33;137231;1275;22174;-82
2023/09/16 03:34:44;;;;;;;9.70;8.10;;;;;;;7.05;100.00;99490.17;137240;1275;22181;-82
2023/09/16 03:37:46;;;;;;;16.70;8.10;;;;;;;7.12;100.00;99486.10;137267;1275;22078;-81
2023/09/16 03:40:50;;;;;;;13.50;7.00;;;;;;;7.89;100.00;99482.33;137385;1275;22292;-82
2023/09/16 03:43:53;;;;;;;14.80;7.00;;;;;;;8.33;100.00;99483.57;137223;1275;22584;-83
2023/09/16 03:46:55;;;;;;;14.00;7.20;;;;;;;8.70;100.00;99487.51;137392;1275;22243;-82
2023/09/16 03:49:58;;;;;;;17.30;7.50;;;;;;;8.48;100.00;99486.66;137396;1274;22612;-82
2023/09/16 03:53:01;;;;;;;13.70;6.70;;;;;;;8.19;100.00;99486.27;137227;1275;22465;-82
2023/09/16 03:56:09;;;;;;;;;;;;;;;7.97;100.00;99483.83;137344;1275;22511;-82
2023/09/16 03:59:13;;;;;;;11.00;6.20;;;;;;;7.78;100.00;99488.54;137321;1274;22275;-82
2023/09/16 04:02:16;;;;;;;14.00;6.70;;;;;;;7.69;100.00;99492.23;137471;1275;22283;-82
2023/09/16 04:05:18;;;;;;;16.00;6.60;;;;;;;7.62;100.00;99494.25;137487;1274;22642;-82
2023/09/16 04:08:21;;;;;;;10.70;6.00;;;;;;;7.52;100.00;99502.02;137258;1271;22571;-82
2023/09/16 04:11:23;;;;;;;8.10;5.20;;;;;;;7.43;100.00;99500.85;137366;1274;22874;-82
2023/09/16 04:14:27;;;;;;;8.00;4.90;;;;;;;7.37;100.00;99503.59;137475;1275;22568;-82
2023/09/16 04:17:29;;;;;;;11.00;5.30;;;;;;;7.26;100.00;99498.54;137050;1275;22314;-83
2023/09/16 04:20:32;;;;;;;10.30;5.40;;;;;;;7.20;100.00;99500.57;137327;1274;22449;-82
2023/09/16 04:23:35;;;;;;;12.40;5.00;;;;;;;7.18;100.00;99501.02;137351;1275;22227;-82
2023/09/16 04:26:38;;;;;;;23.90;6.40;;;;;;;7.17;100.00;99500.80;137447;1272;22423;-81
2023/09/16 04:29:41;;;;;;;12.60;6.30;;;;;;;7.09;100.00;99501.73;137271;1274;22277;-83
2023/09/16 04:32:43;;;;;;;7.60;4.70;;;;;;;6.99;100.00;99497.06;137349;1274;22255;-82
2023/09/16 04:35:46;;;;;;;12.00;4.80;;;;;;;6.97;100.00;99493.19;137489;1274;22216;-80
2023/09/16 04:38:49;;;;;;;8.90;5.10;;;;;;;7.02;100.00;99491.10;137502;1274;22287;-81
2023/09/16 04:41:53;;;;;;;9.80;5.00;;;;;;;7.09;100.00;99492.72;137542;1274;22407;-81
2023/09/16 04:44:55;;;;;;;9.20;4.70;;;;;;;7.14;100.00;99499.14;137421;1275;22472;-81
2023/09/16 04:47:58;;;;;;;6.40;4.60;;;;;;;7.22;100.00;99495.13;137219;1275;22339;-81
2023/09/16 04:51:01;;;;;;;8.60;4.90;;;;;;;7.23;100.00;99497.90;137124;1274;22538;-83
2023/09/16 04:54:04;;;;;;;10.20;5.30;;;;;;;7.18;100.00;99499.99;137437;1275;22246;-83
2023/09/16 04:57:09;;;;;;;12.20;5.60;;;;;;;7.24;100.00;99500.55;137292;1275;22252;-83
2023/09/16 05:00:12;;;;;;;13.30;6.20;;;;;;;7.36;100.00;99500.95;137359;1271;22259;-83
2023/09/16 05:03:14;;;;;;;37.10;15.30;;;;;;;7.49;100.00;99502.29;137197;1275;22568;-83
2023/09/16 05:06:17;;;;;;;15.60;5.80;;;;;;;7.57;100.00;99501.16;137321;1275;22265;-83
2023/09/16 05:09:19;;;;;;;10.80;5.90;;;;;;;7.67;100.00;99502.38;137244;1275;22232;-83
2023/09/16 05:12:22;;;;;;;6.30;5.10;;;;;;;7.79;100.00;99510.77;137389;1275;22259;-83
2023/09/16 05:15:25;;;;;;;13.00;4.90;;;;;;;7.90;100.00;99512.89;137383;1269;22311;-84
2023/09/16 05:18:27;;;;;;;11.10;4.80;;;;;;;8.04;100.00;99511.09;137286;1275;22337;-82
2023/09/16 05:21:30;;;;;;;9.80;4.50;;;;;;;8.21;100.00;99512.33;137308;1275;22360;-82
2023/09/16 05:24:32;;;;;;;16.50;4.90;;;;;;;8.42;100.00;99511.46;137382;1274;22304;-83
2023/09/16 05:27:35;;;;;;;8.40;4.50;;;;;;;8.63;100.00;99508.29;137321;1274;22217;-83
2023/09/16 05:30:37;;;;;;;13.60;5.00;;;;;;;8.82;100.00;99509.59;137340;1274;22232;-82
2023/09/16 05:33:40;;;;;;;6.10;4.10;;;;;;;9.02;100.00;99505.12;137342;1274;22162;-82
2023/09/16 05:36:43;;;;;;;7.60;4.80;;;;;;;9.23;100.00;99505.89;137344;1275;23049;-82
2023/09/16 05:39:45;;;;;;;10.00;4.80;;;;;;;9.44;100.00;99501.43;137344;1274;22200;-83
2023/09/16 05:42:48;;;;;;;12.80;5.30;;;;;;;9.64;100.00;99497.63;137365;1274;22324;-82
2023/09/16 05:45:50;;;;;;;12.10;5.90;;;;;;;9.87;100.00;99497.16;137359;1272;22072;-84
2023/09/16 05:48:56;;;;;;;7.70;5.20;;;;;;;10.15;100.00;99492.13;137278;1272;22415;-83
2023/09/16 05:51:58;;;;;;;12.00;5.40;;;;;;;10.57;100.00;99492.10;137303;1275;22249;-83
2023/09/16 05:55:01;;;;;;;11.10;5.50;;;;;;;11.04;100.00;99487.88;137184;1275;26691;-84
2023/09/16 05:58:06;;;;;;;60.60;7.30;;;;;;;11.42;100.00;99481.50;137388;1275;22652;-82
2023/09/16 06:01:09;;;;;;;10.90;5.60;;;;;;;11.80;100.00;99480.63;137393;1275;22243;-83
2023/09/16 06:04:13;;;;;;;10.90;4.80;;;;;;;12.17;100.00;99481.44;137373;1275;22598;-83
2023/09/16 06:07:16;;;;;;;13.50;5.20;;;;;;;12.52;100.00;99479.35;137401;1275;22545;-83
2023/09/16 06:10:21;;;;;;;10.70;5.10;;;;;;;12.83;100.00;99469.80;137356;1275;22241;-84
2023/09/16 06:13:23;;;;;;;10.50;5.10;;;;;;;13.12;100.00;99470.55;137351;1275;22659;-82
2023/09/16 06:16:26;;;;;;;8.90;4.50;;;;;;;13.37;100.00;99465.27;137416;1275;22849;-83
2023/09/16 06:19:29;;;;;;;7.40;5.00;;;;;;;13.63;100.00;99464.48;137338;1275;22805;-82
2023/09/16 06:22:31;;;;;;;7.50;4.80;;;;;;;13.88;100.00;99460.00;137253;1274;22332;-82
2023/09/16 06:25:35;;;;;;;7.30;4.30;;;;;;;14.12;100.00;99462.47;137338;1275;22544;-82
2023/09/16 06:28:37;;;;;;;6.40;4.50;;;;;;;14.32;100.00;99465.76;137374;1275;22473;-82
2023/09/16 06:31:40;;;;;;;7.80;5.10;;;;;;;14.50;100.00;99468.71;137439;1275;22674;-83
2023/09/16 06:34:44;;;;;;;7.20;5.50;;;;;;;14.70;100.00;99472.86;137307;1275;22589;-84
2023/09/16 06:37:50;;;;;;;5.40;4.00;;;;;;;14.92;100.00;99471.77;137413;1274;22753;-84
2023/09/16 06:40:53;;;;;;;5.90;4.90;;;;;;;15.13;100.00;99466.77;137441;1275;22271;-84
2023/09/16 06:43:56;;;;;;;7.60;4.80;;;;;;;15.31;100.00;99466.81;137342;1275;22233;-84
2023/09/16 06:46:59;;;;;;;23.70;19.00;;;;;;;15.48;100.00;99470.52;137424;1262;22769;-83
2023/09/16 06:50:02;;;;;;;10.10;7.10;;;;;;;15.67;100.00;99470.63;137481;1275;22216;-84
2023/09/16 06:53:05;;;;;;;6.70;5.00;;;;;;;15.86;100.00;99467.50;137282;1275;22534;-84
2023/09/16 06:56:07;;;;;;;9.60;5.40;;;;;;;16.02;100.00;99469.25;137050;1275;22215;-84
2023/09/16 06:59:10;;;;;;;43.30;8.00;;;;;;;16.09;100.00;99470.83;137048;1275;22257;-81
2023/09/16 07:02:12;;;;;;;12.50;6.00;;;;;;;16.15;100.00;99475.74;137352;1274;22304;-83
2023/09/16 07:05:15;;;;;;;17.90;6.20;;;;;;;16.29;100.00;99474.15;137402;1274;22701;-85
2023/09/16 07:08:17;;;;;;;10.40;5.00;;;;;;;16.49;100.00;99478.17;137364;1275;22899;-83
2023/09/16 07:11:20;;;;;;;10.30;5.90;;;;;;;16.67;100.00;99476.59;137327;1274;22405;-83
2023/09/16 07:14:23;;;;;;;8.20;5.50;;;;;;;16.82;100.00;99479.37;137354;1274;22211;-84
2023/09/16 07:17:25;;;;;;;7.10;5.90;;;;;;;17.01;100.00;99479.65;137403;1274;22272;-84
2023/09/16 07:20:30;;;;;;;16.80;6.30;;;;;;;17.19;100.00;99479.40;137393;1271;22258;-83
2023/09/16 07:23:33;;;;;;;19.70;6.50;;;;;;;17.26;100.00;99481.65;137393;1275;22295;-84
2023/09/16 07:26:37;;;;;;;9.00;5.70;;;;;;;17.33;100.00;99485.66;137336;1274;22606;-84
2023/09/16 07:29:40;;;;;;;10.60;6.80;;;;;;;17.39;100.00;99482.31;137392;1271;22238;-84
2023/09/16 07:36:27;;;;;;;10.80;8.60;;;;;;;17.55;100.00;99488.20;137297;1275;22895;-85
2023/09/16 07:39:29;;;;;;;10.30;6.90;;;;;;;17.68;100.00;99486.56;137377;1274;22225;-83
2023/09/16 07:42:35;;;;;;;10.40;6.40;;;;;;;17.80;100.00;99483.66;137339;1274;22219;-84
2023/09/16 07:45:38;;;;;;;10.00;6.30;;;;;;;17.85;100.00;99487.68;137343;1274;22223;-83
2023/09/16 07:48:40;;;;;;;11.50;6.90;;;;;;;17.96;100.00;99490.77;137367;1274;22211;-84
2023/09/16 07:51:45;;;;;;;12.10;6.20;;;;;;;18.07;100.00;99489.09;137352;1274;22203;-83
2023/09/16 07:54:48;;;;;;;9.20;6.30;;;;;;;18.25;100.00;99483.15;137350;1274;22890;-84
2023/09/16 07:57:50;;;;;;;10.60;6.10;;;;;;;18.50;100.00;99476.41;137210;1275;22222;-84
2023/09/16 08:00:54;;;;;;;10.90;6.70;;;;;;;18.45;100.00;99476.80;137388;1272;22203;-84
2023/09/16 08:03:56;;;;;;;16.30;7.10;;;;;;;18.50;100.00;99474.29;137357;1275;22185;-84
2023/09/16 08:06:59;;;;;;;15.20;6.50;;;;;;;18.53;100.00;99473.73;137414;1269;22235;-84
2023/09/16 08:10:02;;;;;;;7.10;6.20;;;;;;;18.75;100.00;99472.99;137387;1274;22218;-83
2023/09/16 08:13:04;;;;;;;12.70;6.50;;;;;;;19.02;100.00;99468.45;137340;1275;22544;-85
2023/09/16 08:16:07;;;;;;;12.10;6.70;;;;;;;19.16;100.00;99464.59;137283;1274;22414;-83
2023/09/16 08:19:09;;;;;;;8.80;6.10;;;;;;;19.30;100.00;99465.11;137327;1275;22397;-84
2023/09/16 08:22:12;;;;;;;14.60;6.20;;;;;;;19.39;100.00;99464.27;137271;1275;22198;-84
2023/09/16 08:25:14;;;;;;;11.50;6.20;;;;;;;19.52;100.00;99468.17;137276;1275;22570;-84
2023/09/16 08:28:19;;;;;;;11.40;6.20;;;;;;;19.62;100.00;99466.81;137222;1275;22181;-84
2023/09/16 08:31:22;;;;;;;13.50;6.00;;;;;;;19.68;100.00;99465.66;137111;1271;22537;-84
2023/09/16 08:34:25;;;;;;;9.80;6.90;;;;;;;19.64;100.00;99468.19;137390;1274;22797;-85
2023/09/16 08:37:31;;;;;;;9.80;6.60;;;;;;;19.59;100.00;99467.20;137189;1262;22167;-85
2023/09/16 08:40:34;;;;;;;41.70;32.40;;;;;;;19.62;100.00;99462.21;137201;1275;22269;-85
2023/09/16 08:43:36;;;;;;;9.50;7.20;;;;;;;19.71;100.00;99461.36;137397;1274;22259;-84
2023/09/16 08:46:42;;;;;;;11.10;6.90;;;;;;;19.68;100.00;99459.29;137226;1275;22232;-83
2023/09/16 08:49:44;;;;;;;7.80;7.10;;;;;;;19.69;100.00;99455.92;137316;1275;22238;-85
2023/09/16 08:52:47;;;;;;;11.70;6.10;;;;;;;19.76;100.00;99459.17;137186;1274;22415;-84
2023/09/16 08:55:52;;;;;;;9.70;6.20;;;;;;;19.94;100.00;99458.89;136262;1266;24195;-84
2023/09/16 08:58:54;;;;;;;13.80;6.40;;;;;;;20.21;100.00;99466.24;136831;1274;22412;-85
2023/09/16 09:01:57;;;;;;;9.20;6.10;;;;;;;20.32;100.00;99463.58;137010;1275;22240;-86
2023/09/16 09:05:00;;;;;;;6.50;5.50;;;;;;;20.49;100.00;99459.59;137339;1275;22279;-84
2023/09/16 09:08:03;;;;;;;6.80;6.10;;;;;;;20.64;100.00;99459.65;136921;1274;22076;-85
2023/09/16 09:11:05;;;;;;;18.30;7.40;;;;;;;20.78;100.00;99457.26;136780;1272;22206;-84
2023/09/16 09:14:09;;;;;;;8.80;7.10;;;;;;;20.89;100.00;99460.78;137369;1275;22783;-85
2023/09/16 09:17:11;;;;;;;7.60;6.70;;;;;;;20.94;100.00;99458.20;136863;1269;22102;-86
2023/09/16 09:20:14;;;;;;;15.00;6.70;;;;;;;20.99;65.67;99455.27;136714;1275;22536;-85
2023/09/16 09:23:16;;;;;;;8.40;6.40;;;;;;;21.02;65.56;99456.28;137354;1272;22544;-85
2023/09/16 09:26:20;;;;;;;8.40;6.10;;;;;;;21.09;64.52;99448.88;137103;1262;22245;-84
2023/09/16 09:29:26;;;;;;;;;;;;;;;21.14;64.42;99453.38;136995;1275;22490;-86
2023/09/16 09:32:28;;;;;;;9.00;5.80;;;;;;;21.11;64.11;99454.33;137086;1275;22928;-84
2023/09/16 09:35:31;;;;;;;7.50;5.80;;;;;;;21.17;64.00;99450.11;136795;1275;22826;-84
2023/09/16 09:38:33;;;;;;;9.10;6.20;;;;;;;21.25;64.38;99444.83;136861;1275;22764;-84
2023/09/16 09:41:36;;;;;;;7.60;5.80;;;;;;;21.43;63.76;99444.80;137265;1275;22553;-85
2023/09/16 09:44:38;;;;;;;6.40;5.60;;;;;;;21.50;63.48;99440.03;136934;1275;22196;-85
2023/09/16 09:47:41;;;;;;;7.50;5.70;;;;;;;21.49;63.02;99437.75;136943;1275;22604;-84
2023/09/16 09:50:44;;;;;;;8.50;5.80;;;;;;;21.48;62.76;99438.83;137173;1275;22294;-87
2023/09/16 09:53:47;;;;;;;7.30;5.70;;;;;;;21.48;62.87;99435.99;136950;1275;22170;-86
2023/09/16 09:56:49;;;;;;;8.30;6.00;;;;;;;21.48;62.43;99431.56;136823;1275;23182;-87
2023/09/16 09:59:52;;;;;;;5.90;5.40;;;;;;;21.40;62.91;99430.88;137335;1275;23042;-85
2023/09/16 10:02:54;;;;;;;6.20;5.30;;;;;;;21.53;64.24;99422.94;136970;1275;22638;-86
2023/09/16 10:05:57;;;;;;;8.50;6.30;;;;;;;21.86;63.80;99420.95;137067;1274;22562;-85
2023/09/16 10:09:06;;;;;;;8.00;5.90;;;;;;;21.99;63.08;99419.04;137368;1275;22116;-86
2023/09/16 10:12:08;;;;;;;6.60;5.40;;;;;;;22.07;61.37;99419.21;137006;1274;22512;-85
2023/09/16 10:15:11;;;;;;;7.60;5.50;;;;;;;22.02;61.55;99423.23;137355;1275;22673;-84
2023/09/16 10:18:13;;;;;;;6.90;5.40;;;;;;;22.07;61.20;99420.11;137338;1275;22309;-84
2023/09/16 10:21:16;;;;;;;7.40;5.40;;;;;;;22.10;61.08;99415.95;137376;1272;22178;-84
2023/09/16 10:24:18;;;;;;;9.30;5.90;;;;;;;22.15;60.92;99413.70;137343;1275;22208;-83
2023/09/16 10:27:23;;;;;;;6.50;5.60;;;;;;;22.17;60.60;99413.26;137380;1275;22234;-84
2023/09/16 10:30:26;;;;;;;6.00;5.40;;;;;;;22.29;60.99;99413.33;137304;1275;22164;-84
2023/09/16 10:33:28;;;;;;;6.90;4.80;;;;;;;22.42;60.29;99412.98;137383;1272;22314;-84
2023/09/16 10:36:31;;;;;;;6.40;5.30;;;;;;;22.55;60.06;99414.22;137368;1275;22655;-84
2023/09/16 10:39:34;;;;;;;7.30;5.10;;;;;;;22.67;59.22;99419.23;137368;1274;22411;-84
2023/09/16 10:42:36;;;;;;;5.90;5.30;;;;;;;22.58;58.63;99415.92;137407;1275;22095;-83
2023/09/16 10:45:39;;;;;;;7.50;5.50;;;;;;;22.63;59.75;99411.54;137421;1275;22310;-84
2023/09/16 10:48:42;;;;;;;7.40;6.30;;;;;;;22.75;59.61;99408.00;137250;1275;22551;-85
2023/09/16 10:51:44;;;;;;;8.00;5.70;;;;;;;22.90;59.37;99409.73;137476;1275;22313;-86
2023/09/16 10:54:47;;;;;;;6.70;6.00;;;;;;;23.02;59.49;99403.86;137293;1275;22542;-85
2023/09/16 10:57:50;;;;;;;11.10;6.20;;;;;;;23.18;59.22;99401.41;137337;1275;22547;-86
2023/09/16 11:00:54;;;;;;;8.00;5.60;;;;;;;23.32;58.76;99398.33;137437;1274;22235;-86
2023/09/16 11:03:56;;;;;;;5.80;5.30;;;;;;;23.34;58.66;99396.85;137326;1275;22286;-84
2023/09/16 11:06:59;;;;;;;8.40;6.10;;;;;;;23.37;58.60;99395.34;137315;1275;22165;-87
2023/09/16 11:10:01;;;;;;;11.10;7.50;;;;;;;23.39;58.56;99391.35;137337;1275;22986;-86
2023/09/16 11:13:06;;;;;;;6.80;5.90;;;;;;;23.49;58.13;99385.23;137313;1275;23136;-86
2023/09/16 11:16:08;;;;;;;10.60;8.70;;;;;;;23.61;58.36;99383.98;137349;1275;22242;-86
2023/09/16 11:19:11;;;;;;;6.30;5.80;;;;;;;23.67;57.51;99377.73;137265;1275;22629;-84
2023/09/16 11:22:13;;;;;;;5.80;5.20;;;;;;;23.64;57.46;99365.92;137224;1275;22615;-84
2023/09/16 11:25:16;;;;;;;6.40;5.80;;;;;;;23.76;57.58;99360.73;137377;1274;22559;-85
2023/09/16 11:28:19;;;;;;;7.40;6.50;;;;;;;23.81;57.15;99354.70;137221;1275;22171;-84
2023/09/16 11:31:24;;;;;;;8.10;6.30;;;;;;;23.74;57.12;99349.41;137308;1275;22294;-85
2023/09/16 11:34:27;;;;;;;6.10;5.50;;;;;;;23.66;56.83;99349.86;137458;1272;22556;-84
2023/09/16 11:37:32;;;;;;;6.20;5.50;;;;;;;23.61;56.78;99349.15;137080;1275;22624;-85
2023/09/16 11:40:35;;;;;;;6.10;5.50;;;;;;;23.61;56.76;99346.32;137243;1275;22581;-86
2023/09/16 11:43:37;;;;;;;6.50;5.90;;;;;;;23.61;56.28;99349.35;137339;1275;22527;-85
2023/09/16 11:46:40;;;;;;;8.00;5.40;;;;;;;23.57;57.23;99348.58;137293;1275;22706;-86
2023/09/16 11:49:45;;;;;;;11.70;5.50;;;;;;;23.70;57.53;99344.58;137252;1275;22171;-85
2023/09/16 11:52:48;;;;;;;6.10;5.50;;;;;;;23.77;56.74;99345.05;137384;1274;22318;-87
2023/09/16 11:55:53;;;;;;;8.90;5.30;;;;;;;23.80;56.74;99336.08;137417;1274;22743;-85
2023/09/16 11:58:58;;;;;;;11.10;5.30;;;;;;;23.89;56.59;99328.84;137301;1274;22188;-85
2023/09/16 12:02:01;;;;;;;5.40;4.90;;;;;;;23.98;56.87;99324.24;137383;1275;22405;-85
2023/09/16 12:05:05;;;;;;;8.30;5.00;;;;;;;24.10;56.20;99317.05;137191;1275;22207;-84
2023/09/16 12:08:07;;;;;;;12.40;5.50;;;;;;;24.11;56.21;99311.69;137366;1275;22950;-87
2023/09/16 12:11:10;;;;;;;8.90;5.40;;;;;;;24.10;56.05;99310.14;137374;1274;22402;-84
2023/09/16 12:14:12;;;;;;;6.70;5.40;;;;;;;24.11;56.11;99311.16;137282;1274;22742;-87
2023/09/16 12:17:15;;;;;;;6.60;5.00;;;;;;;24.16;56.62;99306.89;137332;1274;22390;-85
2023/09/16 12:20:21;;;;;;;5.50;5.00;;;;;;;24.28;56.94;99311.83;137296;1275;22774;-86
2023/09/16 12:23:25;;;;;;;7.70;5.30;;;;;;;24.35;56.32;99311.08;137395;1274;22287;-85
2023/09/16 12:26:27;;;;;;;5.80;5.20;;;;;;;24.36;56.30;99306.57;137334;1275;22570;-86
2023/09/16 12:29:30;;;;;;;14.50;6.20;;;;;;;24.43;56.08;99305.63;137268;1275;22303;-86
2023/09/16 12:32:37;;;;;;;6.00;4.70;;;;;;;24.29;55.62;99302.73;137361;1274;22302;-86
2023/09/16 12:35:40;;;;;;;6.60;5.10;;;;;;;24.31;56.37;99301.78;137373;1275;23022;-86
2023/09/16 12:38:42;;;;;;;7.10;5.10;;;;;;;24.37;56.39;99298.17;137355;1275;22194;-86
2023/09/16 12:41:46;;;;;;;5.40;4.80;;;;;;;24.47;56.08;99299.43;137235;1274;22225;-85
2023/09/16 12:44:48;;;;;;;28.90;25.70;;;;;;;24.52;56.24;99296.20;137407;1275;22570;-84
2023/09/16 12:47:53;;;;;;;8.60;7.70;;;;;;;24.57;56.11;99289.77;137198;1274;22255;-86
2023/09/16 12:50:56;;;;;;;8.70;5.70;;;;;;;24.56;55.91;99292.68;137314;1275;22225;-86
2023/09/16 12:53:58;;;;;;;5.30;4.80;;;;;;;24.38;55.78;99292.27;137355;1275;22210;-85
2023/09/16 12:57:02;;;;;;;5.90;5.20;;;;;;;24.33;56.53;99289.27;137369;1274;22248;-85
2023/09/16 13:00:07;;;;;;;;;;;;;;;24.51;56.56;99281.48;137176;1275;22547;-86
2023/09/16 13:03:11;;;;;;;6.60;5.10;;;;;;;24.46;55.68;99279.88;137238;1275;22284;-85
2023/09/16 13:06:14;;;;;;;8.80;5.00;;;;;;;24.37;56.41;99277.02;137383;1275;22410;-86
2023/09/16 13:09:19;;;;;;;5.40;5.00;;;;;;;24.34;56.49;99272.33;137352;1275;22040;-85
2023/09/16 13:12:30;;;;;;;5.20;4.80;;;;;;;24.28;56.96;99268.46;137424;1275;22438;-84
2023/09/16 13:15:36;;;;;;;5.60;4.80;;;;;;;24.31;57.10;99269.06;137352;1275;22604;-85
2023/09/16 13:18:38;;;;;;;6.50;4.70;;;;;;;24.46;57.04;99269.73;137248;1274;22212;-84
2023/09/16 13:21:44;;;;;;;7.40;4.90;;;;;;;24.53;56.53;99264.15;137276;1274;22213;-85
2023/09/16 13:24:46;;;;;;;5.60;5.00;;;;;;;24.48;56.27;99269.15;137252;1275;22464;-85
2023/09/16 13:27:51;;;;;;;7.10;5.40;;;;;;;24.41;56.83;99276.33;137400;1275;22448;-86
2023/09/16 13:30:54;;;;;;;6.40;5.30;;;;;;;24.47;56.88;99274.52;137348;1275;22153;-86
2023/09/16 13:34:00;;;;;;;7.70;5.40;;;;;;;24.50;56.88;99280.44;137385;1275;22351;-87
2023/09/16 13:37:03;;;;;;;5.60;5.10;;;;;;;24.46;56.82;99281.84;137324;1274;22552;-86
2023/09/16 13:40:06;;;;;;;11.60;5.10;;;;;;;24.42;57.08;99276.30;137390;1275;22190;-86
2023/09/16 13:43:08;;;;;;;6.50;5.20;;;;;;;24.39;57.22;99280.50;137383;1275;22734;-85
2023/09/16 13:46:11;;;;;;;10.50;5.60;;;;;;;24.41;57.34;99276.87;137462;1275;22182;-86
2023/09/16 13:49:13;;;;;;;6.20;5.60;;;;;;;24.42;57.31;99276.84;137313;1275;22206;-86
2023/09/16 13:52:16;;;;;;;6.00;5.50;;;;;;;24.42;57.31;99274.51;137313;1275;22183;-85
2023/09/16 13:55:18;;;;;;;10.10;9.00;;;;;;;24.42;57.50;99275.05;137219;1275;22643;-85
2023/09/16 13:58:24;;;;;;;6.50;5.60;;;;;;;24.48;57.57;99270.39;137386;1275;22794;-85
2023/09/16 14:01:26;;;;;;;6.00;5.50;;;;;;;24.41;57.15;99272.25;137227;1275;24864;-84
2023/09/16 14:04:29;;;;;;;6.40;5.80;;;;;;;24.25;57.69;99266.74;137353;1275;22280;-84
2023/09/16 14:07:32;;;;;;;6.80;6.00;;;;;;;24.20;57.95;99261.42;137432;1261;22382;-85
2023/09/16 14:10:37;;;;;;;5.90;5.40;;;;;;;24.21;58.36;99263.52;137286;1274;22188;-85